sensor_id;sensor_type;location;lat;lon;timestamp;P1;durP1;ratioP1;P2;durP2;ratioP2
72273;SDS011;60208;48.692;8.948;2022-08-11T00:02:06;2.28;;;2.08;;
72273;SDS011;60208;48.692;8.948;2022-08-11T00:04:33;3.00;;;1.90;;
72273;SDS011;60208;48.692;8.948;2022-08-11T00:07:01;2.80;;;2.10;;
72273;SDS011;60208;48.692;8.948;2022-08-11T00:09:32;3.13;;;1.85;;
72273;SDS011;60208;48.692;8.948;2022-08-11T00:12:00;4.30;;;2.25;;
72273;SDS011;60208;48.692;8.948;2022-08-11T00:14:26;2.20;;;2.00;;
72273;SDS011;60208;48.692;8.948;2022-08-11T00:17:00;3.35;;;2.00;;
72273;SDS011;60208;48.692;8.948;2022-08-11T00:19:33;4.15;;;2.15;;
72273;SDS011;60208;48.692;8.948;2022-08-11T00:22:00;4.35;;;2.05;;
72273;SDS011;60208;48.692;8.948;2022-08-11T00:24:31;3.22;;;2.35;;
72273;SDS011;60208;48.692;8.948;2022-08-11T00:26:58;2.67;;;2.15;;
72273;SDS011;60208;48.692;8.948;2022-08-11T00:29:23;2.33;;;2.13;;
72273;SDS011;60208;48.692;8.948;2022-08-11T00:31:52;2.38;;;1.92;;
72273;SDS011;60208;48.692;8.948;2022-08-11T00:34:19;2.63;;;2.10;;
72273;SDS011;60208;48.692;8.948;2022-08-11T00:36:51;2.28;;;2.00;;
72273;SDS011;60208;48.692;8.948;2022-08-11T00:39:21;3.30;;;1.88;;
72273;SDS011;60208;48.692;8.948;2022-08-11T00:47:38;2.05;;;1.85;;
72273;SDS011;60208;48.692;8.948;2022-08-11T00:52:48;4.00;;;2.33;;
72273;SDS011;60208;48.692;8.948;2022-08-11T00:58:11;3.20;;;1.98;;
72273;SDS011;60208;48.692;8.948;2022-08-11T01:31:45;3.40;;;2.10;;
72273;SDS011;60208;48.692;8.948;2022-08-11T01:42:52;5.20;;;2.15;;
72273;SDS011;60208;48.692;8.948;2022-08-11T01:59:35;2.38;;;2.00;;
72273;SDS011;60208;48.692;8.948;2022-08-11T02:08:19;2.88;;;2.10;;
72273;SDS011;60208;48.692;8.948;2022-08-11T02:10:57;3.35;;;2.22;;
72273;SDS011;60208;48.692;8.948;2022-08-11T02:13:50;4.40;;;2.28;;
72273;SDS011;60208;48.692;8.948;2022-08-11T02:16:42;2.85;;;2.20;;
72273;SDS011;60208;48.692;8.948;2022-08-11T02:25:55;2.47;;;2.28;;
72273;SDS011;60208;48.692;8.948;2022-08-11T02:28:56;4.10;;;2.03;;
72273;SDS011;60208;48.692;8.948;2022-08-11T02:31:39;2.70;;;2.50;;
72273;SDS011;60208;48.692;8.948;2022-08-11T02:53:31;4.65;;;2.45;;
72273;SDS011;60208;48.692;8.948;2022-08-11T03:02:14;3.28;;;2.65;;
72273;SDS011;60208;48.692;8.948;2022-08-11T03:12:57;2.85;;;2.60;;
72273;SDS011;60208;48.692;8.948;2022-08-11T03:18:55;3.03;;;2.70;;
72273;SDS011;60208;48.692;8.948;2022-08-11T03:30:13;4.63;;;2.63;;
72273;SDS011;60208;48.692;8.948;2022-08-11T03:32:45;4.30;;;2.45;;
72273;SDS011;60208;48.692;8.948;2022-08-11T03:35:33;5.35;;;2.80;;
72273;SDS011;60208;48.692;8.948;2022-08-11T03:38:05;3.17;;;2.50;;
72273;SDS011;60208;48.692;8.948;2022-08-11T03:46:25;3.50;;;2.65;;
72273;SDS011;60208;48.692;8.948;2022-08-11T04:05:48;3.25;;;2.80;;
72273;SDS011;60208;48.692;8.948;2022-08-11T04:25:13;3.20;;;2.53;;
72273;SDS011;60208;48.692;8.948;2022-08-11T04:36:09;4.63;;;3.20;;
72273;SDS011;60208;48.692;8.948;2022-08-11T04:41:59;3.78;;;3.00;;
72273;SDS011;60208;48.692;8.948;2022-08-11T04:51:04;7.63;;;3.10;;
72273;SDS011;60208;48.692;8.948;2022-08-11T04:54:04;2.90;;;2.70;;
72273;SDS011;60208;48.692;8.948;2022-08-11T04:56:59;3.85;;;2.75;;
72273;SDS011;60208;48.692;8.948;2022-08-11T05:00:02;5.03;;;3.00;;
72273;SDS011;60208;48.692;8.948;2022-08-11T05:08:33;5.32;;;2.92;;
72273;SDS011;60208;48.692;8.948;2022-08-11T05:16:41;3.78;;;3.17;;
72273;SDS011;60208;48.692;8.948;2022-08-11T05:19:31;5.57;;;3.13;;
72273;SDS011;60208;48.692;8.948;2022-08-11T05:22:16;3.17;;;2.63;;
72273;SDS011;60208;48.692;8.948;2022-08-11T05:25:05;3.30;;;2.90;;
72273;SDS011;60208;48.692;8.948;2022-08-11T05:30:55;4.55;;;2.85;;
72273;SDS011;60208;48.692;8.948;2022-08-11T05:33:45;3.42;;;2.60;;
72273;SDS011;60208;48.692;8.948;2022-08-11T05:39:14;5.57;;;2.70;;
72273;SDS011;60208;48.692;8.948;2022-08-11T05:42:09;3.42;;;2.58;;
72273;SDS011;60208;48.692;8.948;2022-08-11T05:44:54;3.00;;;2.80;;
72273;SDS011;60208;48.692;8.948;2022-08-11T05:47:41;2.75;;;2.42;;
72273;SDS011;60208;48.692;8.948;2022-08-11T05:50:26;3.03;;;2.50;;
72273;SDS011;60208;48.692;8.948;2022-08-11T05:53:11;4.50;;;2.72;;
72273;SDS011;60208;48.692;8.948;2022-08-11T05:55:56;3.25;;;2.30;;
72273;SDS011;60208;48.692;8.948;2022-08-11T05:58:41;3.35;;;2.80;;
72273;SDS011;60208;48.692;8.948;2022-08-11T06:01:09;4.82;;;2.47;;
72273;SDS011;60208;48.692;8.948;2022-08-11T06:03:36;4.60;;;2.60;;
72273;SDS011;60208;48.692;8.948;2022-08-11T06:06:21;6.95;;;2.70;;
72273;SDS011;60208;48.692;8.948;2022-08-11T06:08:49;5.88;;;2.50;;
72273;SDS011;60208;48.692;8.948;2022-08-11T06:11:19;4.05;;;2.67;;
72273;SDS011;60208;48.692;8.948;2022-08-11T06:13:44;4.32;;;2.55;;
72273;SDS011;60208;48.692;8.948;2022-08-11T06:16:10;8.35;;;2.60;;
72273;SDS011;60208;48.692;8.948;2022-08-11T06:18:39;6.32;;;2.45;;
72273;SDS011;60208;48.692;8.948;2022-08-11T06:21:12;5.05;;;2.67;;
72273;SDS011;60208;48.692;8.948;2022-08-11T06:23:39;5.93;;;2.80;;
72273;SDS011;60208;48.692;8.948;2022-08-11T06:26:09;6.55;;;2.63;;
72273;SDS011;60208;48.692;8.948;2022-08-11T06:28:37;8.68;;;2.80;;
72273;SDS011;60208;48.692;8.948;2022-08-11T06:31:37;5.22;;;2.58;;
72273;SDS011;60208;48.692;8.948;2022-08-11T06:36:54;3.65;;;2.42;;
72273;SDS011;60208;48.692;8.948;2022-08-11T06:39:51;3.47;;;2.42;;
72273;SDS011;60208;48.692;8.948;2022-08-11T06:42:30;3.70;;;2.33;;
72273;SDS011;60208;48.692;8.948;2022-08-11T06:47:40;3.55;;;2.40;;
72273;SDS011;60208;48.692;8.948;2022-08-11T06:50:08;5.03;;;2.45;;
72273;SDS011;60208;48.692;8.948;2022-08-11T06:52:52;3.58;;;2.55;;
72273;SDS011;60208;48.692;8.948;2022-08-11T06:55:24;2.97;;;2.25;;
72273;SDS011;60208;48.692;8.948;2022-08-11T06:58:13;3.63;;;2.30;;
72273;SDS011;60208;48.692;8.948;2022-08-11T07:01:02;4.47;;;2.38;;
72273;SDS011;60208;48.692;8.948;2022-08-11T07:03:32;4.55;;;2.70;;
72273;SDS011;60208;48.692;8.948;2022-08-11T07:06:09;5.68;;;2.65;;
72273;SDS011;60208;48.692;8.948;2022-08-11T07:14:53;2.88;;;2.40;;
72273;SDS011;60208;48.692;8.948;2022-08-11T07:17:45;2.58;;;2.10;;
72273;SDS011;60208;48.692;8.948;2022-08-11T07:20:34;4.03;;;2.15;;
72273;SDS011;60208;48.692;8.948;2022-08-11T07:23:18;7.55;;;2.30;;
72273;SDS011;60208;48.692;8.948;2022-08-11T07:26:02;6.70;;;2.00;;
72273;SDS011;60208;48.692;8.948;2022-08-11T07:28:46;3.38;;;2.40;;
72273;SDS011;60208;48.692;8.948;2022-08-11T07:31:29;3.67;;;2.15;;
72273;SDS011;60208;48.692;8.948;2022-08-11T07:34:02;5.13;;;2.40;;
72273;SDS011;60208;48.692;8.948;2022-08-11T07:36:35;3.85;;;2.10;;
72273;SDS011;60208;48.692;8.948;2022-08-11T07:39:03;3.03;;;2.33;;
72273;SDS011;60208;48.692;8.948;2022-08-11T07:41:28;3.10;;;2.22;;
72273;SDS011;60208;48.692;8.948;2022-08-11T07:43:58;5.43;;;2.30;;
72273;SDS011;60208;48.692;8.948;2022-08-11T07:46:42;4.32;;;2.35;;
72273;SDS011;60208;48.692;8.948;2022-08-11T07:49:30;2.88;;;2.22;;
72273;SDS011;60208;48.692;8.948;2022-08-11T07:52:14;3.15;;;2.30;;
72273;SDS011;60208;48.692;8.948;2022-08-11T07:55:14;3.05;;;1.80;;
72273;SDS011;60208;48.692;8.948;2022-08-11T07:57:43;3.80;;;2.03;;
72273;SDS011;60208;48.692;8.948;2022-08-11T08:00:27;4.00;;;2.15;;
72273;SDS011;60208;48.692;8.948;2022-08-11T08:03:11;3.97;;;2.25;;
72273;SDS011;60208;48.692;8.948;2022-08-11T08:05:55;3.08;;;2.10;;
72273;SDS011;60208;48.692;8.948;2022-08-11T08:08:40;5.18;;;2.28;;
72273;SDS011;60208;48.692;8.948;2022-08-11T08:11:24;4.95;;;1.80;;
72273;SDS011;60208;48.692;8.948;2022-08-11T08:14:09;5.65;;;2.55;;
72273;SDS011;60208;48.692;8.948;2022-08-11T08:16:53;3.47;;;2.30;;
72273;SDS011;60208;48.692;8.948;2022-08-11T08:19:38;2.15;;;1.90;;
72273;SDS011;60208;48.692;8.948;2022-08-11T08:22:05;3.60;;;2.10;;
72273;SDS011;60208;48.692;8.948;2022-08-11T08:24:30;3.72;;;2.00;;
72273;SDS011;60208;48.692;8.948;2022-08-11T08:26:57;3.03;;;2.10;;
72273;SDS011;60208;48.692;8.948;2022-08-11T08:29:23;4.43;;;2.00;;
72273;SDS011;60208;48.692;8.948;2022-08-11T08:32:08;3.65;;;1.90;;
72273;SDS011;60208;48.692;8.948;2022-08-11T08:34:35;3.75;;;2.10;;
72273;SDS011;60208;48.692;8.948;2022-08-11T08:37:02;3.17;;;1.98;;
72273;SDS011;60208;48.692;8.948;2022-08-11T08:39:29;3.38;;;1.90;;
72273;SDS011;60208;48.692;8.948;2022-08-11T08:41:56;3.85;;;1.88;;
72273;SDS011;60208;48.692;8.948;2022-08-11T08:44:22;2.58;;;2.13;;
72273;SDS011;60208;48.692;8.948;2022-08-11T08:46:50;3.08;;;2.10;;
72273;SDS011;60208;48.692;8.948;2022-08-11T08:49:21;3.05;;;2.20;;
72273;SDS011;60208;48.692;8.948;2022-08-11T08:51:48;3.38;;;2.17;;
72273;SDS011;60208;48.692;8.948;2022-08-11T08:54:18;4.65;;;2.30;;
72273;SDS011;60208;48.692;8.948;2022-08-11T08:56:45;2.10;;;1.90;;
72273;SDS011;60208;48.692;8.948;2022-08-11T08:59:13;3.35;;;1.90;;
72273;SDS011;60208;48.692;8.948;2022-08-11T09:01:42;2.55;;;2.00;;
72273;SDS011;60208;48.692;8.948;2022-08-11T09:04:10;2.35;;;1.80;;
72273;SDS011;60208;48.692;8.948;2022-08-11T09:06:36;3.63;;;1.90;;
72273;SDS011;60208;48.692;8.948;2022-08-11T09:09:07;3.38;;;1.90;;
72273;SDS011;60208;48.692;8.948;2022-08-11T09:11:34;2.85;;;2.00;;
72273;SDS011;60208;48.692;8.948;2022-08-11T09:16:42;3.80;;;2.03;;
72273;SDS011;60208;48.692;8.948;2022-08-11T09:19:08;3.40;;;1.90;;
72273;SDS011;60208;48.692;8.948;2022-08-11T09:21:34;2.10;;;1.90;;
72273;SDS011;60208;48.692;8.948;2022-08-11T09:24:04;2.47;;;1.83;;
72273;SDS011;60208;48.692;8.948;2022-08-11T09:26:49;4.13;;;1.83;;
72273;SDS011;60208;48.692;8.948;2022-08-11T09:29:27;4.32;;;2.00;;
72273;SDS011;60208;48.692;8.948;2022-08-11T09:31:53;5.25;;;1.80;;
72273;SDS011;60208;48.692;8.948;2022-08-11T09:34:19;2.65;;;1.80;;
72273;SDS011;60208;48.692;8.948;2022-08-11T09:36:44;2.28;;;2.03;;
72273;SDS011;60208;48.692;8.948;2022-08-11T09:39:29;3.28;;;1.83;;
72273;SDS011;60208;48.692;8.948;2022-08-11T09:42:14;3.90;;;1.92;;
72273;SDS011;60208;48.692;8.948;2022-08-11T09:44:40;3.65;;;2.10;;
72273;SDS011;60208;48.692;8.948;2022-08-11T09:47:14;1.90;;;1.70;;
72273;SDS011;60208;48.692;8.948;2022-08-11T09:49:45;3.65;;;1.80;;
72273;SDS011;60208;48.692;8.948;2022-08-11T09:52:12;5.25;;;1.80;;
72273;SDS011;60208;48.692;8.948;2022-08-11T09:54:42;3.05;;;1.70;;
72273;SDS011;60208;48.692;8.948;2022-08-11T09:57:08;2.30;;;1.70;;
72273;SDS011;60208;48.692;8.948;2022-08-11T09:59:52;4.13;;;2.20;;
72273;SDS011;60208;48.692;8.948;2022-08-11T10:02:21;4.20;;;1.67;;
72273;SDS011;60208;48.692;8.948;2022-08-11T10:04:50;3.08;;;2.00;;
72273;SDS011;60208;48.692;8.948;2022-08-11T10:07:18;4.50;;;1.88;;
72273;SDS011;60208;48.692;8.948;2022-08-11T10:10:02;1.77;;;1.60;;
72273;SDS011;60208;48.692;8.948;2022-08-11T10:12:31;3.97;;;1.70;;
72273;SDS011;60208;48.692;8.948;2022-08-11T10:15:03;1.60;;;1.50;;
72273;SDS011;60208;48.692;8.948;2022-08-11T10:17:52;4.55;;;1.67;;
72273;SDS011;60208;48.692;8.948;2022-08-11T10:20:40;2.90;;;1.40;;
72273;SDS011;60208;48.692;8.948;2022-08-11T10:23:06;5.18;;;1.90;;
72273;SDS011;60208;48.692;8.948;2022-08-11T10:25:51;3.70;;;1.80;;
72273;SDS011;60208;48.692;8.948;2022-08-11T10:28:35;2.53;;;1.52;;
72273;SDS011;60208;48.692;8.948;2022-08-11T10:31:05;2.95;;;1.70;;
72273;SDS011;60208;48.692;8.948;2022-08-11T10:33:49;3.47;;;1.50;;
72273;SDS011;60208;48.692;8.948;2022-08-11T10:36:24;2.35;;;1.80;;
72273;SDS011;60208;48.692;8.948;2022-08-11T10:39:12;4.10;;;1.80;;
72273;SDS011;60208;48.692;8.948;2022-08-11T10:41:41;4.90;;;1.52;;
72273;SDS011;60208;48.692;8.948;2022-08-11T10:44:30;2.88;;;1.45;;
72273;SDS011;60208;48.692;8.948;2022-08-11T10:47:00;4.53;;;1.67;;
72273;SDS011;60208;48.692;8.948;2022-08-11T10:49:44;1.70;;;1.50;;
72273;SDS011;60208;48.692;8.948;2022-08-11T10:52:30;2.70;;;1.25;;
72273;SDS011;60208;48.692;8.948;2022-08-11T10:55:15;3.42;;;1.40;;
72273;SDS011;60208;48.692;8.948;2022-08-11T10:57:59;1.40;;;1.30;;
72273;SDS011;60208;48.692;8.948;2022-08-11T11:00:43;2.72;;;1.23;;
72273;SDS011;60208;48.692;8.948;2022-08-11T11:03:09;2.08;;;1.25;;
72273;SDS011;60208;48.692;8.948;2022-08-11T11:05:34;2.15;;;1.27;;
72273;SDS011;60208;48.692;8.948;2022-08-11T11:08:09;1.60;;;1.40;;
72273;SDS011;60208;48.692;8.948;2022-08-11T11:10:57;2.53;;;1.40;;
72273;SDS011;60208;48.692;8.948;2022-08-11T11:13:23;2.50;;;1.33;;
72273;SDS011;60208;48.692;8.948;2022-08-11T11:16:07;2.53;;;1.20;;
72273;SDS011;60208;48.692;8.948;2022-08-11T11:18:52;3.55;;;1.20;;
72273;SDS011;60208;48.692;8.948;2022-08-11T11:21:18;3.00;;;1.15;;
72273;SDS011;60208;48.692;8.948;2022-08-11T11:32:51;2.00;;;1.10;;
72273;SDS011;60208;48.692;8.948;2022-08-11T11:38:44;1.88;;;1.10;;
72273;SDS011;60208;48.692;8.948;2022-08-11T11:41:10;1.23;;;1.13;;
72273;SDS011;60208;48.692;8.948;2022-08-11T11:43:52;2.92;;;1.10;;
72273;SDS011;60208;48.692;8.948;2022-08-11T11:46:19;1.70;;;1.10;;
72273;SDS011;60208;48.692;8.948;2022-08-11T11:48:45;6.03;;;1.25;;
72273;SDS011;60208;48.692;8.948;2022-08-11T11:51:11;2.65;;;1.10;;
72273;SDS011;60208;48.692;8.948;2022-08-11T11:53:38;2.38;;;1.50;;
72273;SDS011;60208;48.692;8.948;2022-08-11T11:56:05;1.30;;;1.20;;
72273;SDS011;60208;48.692;8.948;2022-08-11T11:58:31;3.25;;;1.27;;
72273;SDS011;60208;48.692;8.948;2022-08-11T12:01:15;2.97;;;1.40;;
72273;SDS011;60208;48.692;8.948;2022-08-11T12:03:45;2.25;;;1.10;;
72273;SDS011;60208;48.692;8.948;2022-08-11T12:08:38;1.25;;;1.08;;
72273;SDS011;60208;48.692;8.948;2022-08-11T12:11:05;5.20;;;1.20;;
72273;SDS011;60208;48.692;8.948;2022-08-11T12:13:51;2.80;;;1.27;;
72273;SDS011;60208;48.692;8.948;2022-08-11T12:16:18;1.38;;;1.02;;
72273;SDS011;60208;48.692;8.948;2022-08-11T12:18:45;3.47;;;1.08;;
72273;SDS011;60208;48.692;8.948;2022-08-11T12:21:12;2.25;;;1.20;;
72273;SDS011;60208;48.692;8.948;2022-08-11T12:23:38;2.33;;;1.10;;
72273;SDS011;60208;48.692;8.948;2022-08-11T12:26:22;2.65;;;1.08;;
72273;SDS011;60208;48.692;8.948;2022-08-11T12:29:23;2.17;;;1.30;;
72273;SDS011;60208;48.692;8.948;2022-08-11T12:31:51;1.35;;;1.10;;
72273;SDS011;60208;48.692;8.948;2022-08-11T12:34:18;1.48;;;1.10;;
72273;SDS011;60208;48.692;8.948;2022-08-11T12:39:26;1.17;;;0.98;;
72273;SDS011;60208;48.692;8.948;2022-08-11T12:42:16;4.28;;;1.10;;
72273;SDS011;60208;48.692;8.948;2022-08-11T12:45:00;1.80;;;1.30;;
72273;SDS011;60208;48.692;8.948;2022-08-11T12:47:46;1.50;;;1.02;;
72273;SDS011;60208;48.692;8.948;2022-08-11T12:50:33;1.10;;;1.00;;
72273;SDS011;60208;48.692;8.948;2022-08-11T12:53:22;1.63;;;1.10;;
72273;SDS011;60208;48.692;8.948;2022-08-11T12:55:50;2.55;;;1.02;;
72273;SDS011;60208;48.692;8.948;2022-08-11T12:58:43;1.35;;;0.90;;
72273;SDS011;60208;48.692;8.948;2022-08-11T13:01:09;1.70;;;1.00;;
72273;SDS011;60208;48.692;8.948;2022-08-11T13:03:53;1.10;;;1.00;;
72273;SDS011;60208;48.692;8.948;2022-08-11T13:06:37;3.65;;;1.00;;
72273;SDS011;60208;48.692;8.948;2022-08-11T13:09:04;1.38;;;1.20;;
72273;SDS011;60208;48.692;8.948;2022-08-11T13:11:30;1.17;;;1.08;;
72273;SDS011;60208;48.692;8.948;2022-08-11T13:14:14;1.35;;;1.00;;
72273;SDS011;60208;48.692;8.948;2022-08-11T13:16:40;1.40;;;0.90;;
72273;SDS011;60208;48.692;8.948;2022-08-11T13:19:24;1.63;;;1.00;;
72273;SDS011;60208;48.692;8.948;2022-08-11T13:21:49;1.13;;;1.03;;
72273;SDS011;60208;48.692;8.948;2022-08-11T13:24:16;2.85;;;1.02;;
72273;SDS011;60208;48.692;8.948;2022-08-11T13:26:43;1.05;;;1.00;;
72273;SDS011;60208;48.692;8.948;2022-08-11T13:29:08;2.25;;;1.00;;
72273;SDS011;60208;48.692;8.948;2022-08-11T13:31:34;1.35;;;0.90;;
72273;SDS011;60208;48.692;8.948;2022-08-11T13:34:01;1.02;;;0.90;;
72273;SDS011;60208;48.692;8.948;2022-08-11T13:36:27;1.20;;;0.95;;
72273;SDS011;60208;48.692;8.948;2022-08-11T13:38:53;0.95;;;0.90;;
72273;SDS011;60208;48.692;8.948;2022-08-11T13:41:20;1.13;;;0.95;;
72273;SDS011;60208;48.692;8.948;2022-08-11T13:44:05;2.60;;;1.08;;
72273;SDS011;60208;48.692;8.948;2022-08-11T13:46:32;1.52;;;1.10;;
72273;SDS011;60208;48.692;8.948;2022-08-11T13:48:58;1.48;;;0.80;;
72273;SDS011;60208;48.692;8.948;2022-08-11T13:51:24;3.55;;;1.30;;
72273;SDS011;60208;48.692;8.948;2022-08-11T13:56:21;1.10;;;1.00;;
72273;SDS011;60208;48.692;8.948;2022-08-11T13:58:47;1.10;;;1.00;;
72273;SDS011;60208;48.692;8.948;2022-08-11T14:01:13;2.50;;;1.02;;
72273;SDS011;60208;48.692;8.948;2022-08-11T14:03:38;1.10;;;0.90;;
72273;SDS011;60208;48.692;8.948;2022-08-11T14:06:05;1.60;;;1.00;;
72273;SDS011;60208;48.692;8.948;2022-08-11T14:08:34;2.70;;;1.10;;
72273;SDS011;60208;48.692;8.948;2022-08-11T14:11:03;3.22;;;0.93;;
72273;SDS011;60208;48.692;8.948;2022-08-11T14:13:49;1.55;;;0.95;;
72273;SDS011;60208;48.692;8.948;2022-08-11T14:16:19;3.58;;;1.10;;
72273;SDS011;60208;48.692;8.948;2022-08-11T14:18:50;1.70;;;1.10;;
72273;SDS011;60208;48.692;8.948;2022-08-11T14:21:17;1.40;;;1.10;;
72273;SDS011;60208;48.692;8.948;2022-08-11T14:24:05;1.67;;;0.95;;
72273;SDS011;60208;48.692;8.948;2022-08-11T14:26:31;2.03;;;0.93;;
72273;SDS011;60208;48.692;8.948;2022-08-11T14:29:36;3.58;;;1.10;;
72273;SDS011;60208;48.692;8.948;2022-08-11T14:32:02;2.78;;;2.20;;
72273;SDS011;60208;48.692;8.948;2022-08-11T14:34:30;2.17;;;1.20;;
72273;SDS011;60208;48.692;8.948;2022-08-11T14:36:57;2.45;;;1.10;;
72273;SDS011;60208;48.692;8.948;2022-08-11T14:39:24;2.03;;;1.00;;
72273;SDS011;60208;48.692;8.948;2022-08-11T14:41:56;1.52;;;1.00;;
72273;SDS011;60208;48.692;8.948;2022-08-11T14:44:44;3.78;;;1.10;;
72273;SDS011;60208;48.692;8.948;2022-08-11T14:47:32;1.85;;;0.88;;
72273;SDS011;60208;48.692;8.948;2022-08-11T14:49:58;3.28;;;1.40;;
72273;SDS011;60208;48.692;8.948;2022-08-11T14:52:26;2.05;;;0.90;;
72273;SDS011;60208;48.692;8.948;2022-08-11T14:54:52;1.50;;;1.10;;
72273;SDS011;60208;48.692;8.948;2022-08-11T14:57:37;1.55;;;1.20;;
72273;SDS011;60208;48.692;8.948;2022-08-11T15:00:05;1.85;;;1.08;;
72273;SDS011;60208;48.692;8.948;2022-08-11T15:02:32;5.00;;;1.20;;
72273;SDS011;60208;48.692;8.948;2022-08-11T15:05:19;4.25;;;1.00;;
72273;SDS011;60208;48.692;8.948;2022-08-11T15:07:45;3.28;;;1.08;;
72273;SDS011;60208;48.692;8.948;2022-08-11T15:10:10;1.27;;;1.08;;
72273;SDS011;60208;48.692;8.948;2022-08-11T15:12:38;1.30;;;0.95;;
72273;SDS011;60208;48.692;8.948;2022-08-11T15:15:06;2.42;;;1.08;;
72273;SDS011;60208;48.692;8.948;2022-08-11T15:17:53;4.05;;;1.20;;
72273;SDS011;60208;48.692;8.948;2022-08-11T15:20:19;1.85;;;1.20;;
72273;SDS011;60208;48.692;8.948;2022-08-11T15:23:03;1.20;;;0.90;;
72273;SDS011;60208;48.692;8.948;2022-08-11T15:26:22;1.10;;;1.00;;
72273;SDS011;60208;48.692;8.948;2022-08-11T15:28:47;1.20;;;0.85;;
72273;SDS011;60208;48.692;8.948;2022-08-11T15:31:32;2.75;;;1.00;;
72273;SDS011;60208;48.692;8.948;2022-08-11T15:34:17;1.20;;;1.00;;
72273;SDS011;60208;48.692;8.948;2022-08-11T15:37:05;1.17;;;1.00;;
72273;SDS011;60208;48.692;8.948;2022-08-11T15:39:51;3.00;;;1.00;;
72273;SDS011;60208;48.692;8.948;2022-08-11T15:42:39;2.33;;;1.05;;
72273;SDS011;60208;48.692;8.948;2022-08-11T15:45:28;2.55;;;1.10;;
72273;SDS011;60208;48.692;8.948;2022-08-11T15:48:15;2.00;;;1.00;;
72273;SDS011;60208;48.692;8.948;2022-08-11T15:50:45;1.10;;;1.00;;
72273;SDS011;60208;48.692;8.948;2022-08-11T15:53:20;2.65;;;1.10;;
72273;SDS011;60208;48.692;8.948;2022-08-11T15:55:50;1.20;;;1.10;;
72273;SDS011;60208;48.692;8.948;2022-08-11T15:58:15;2.47;;;1.17;;
72273;SDS011;60208;48.692;8.948;2022-08-11T16:01:01;3.20;;;1.13;;
72273;SDS011;60208;48.692;8.948;2022-08-11T16:03:48;3.22;;;1.10;;
72273;SDS011;60208;48.692;8.948;2022-08-11T16:06:35;1.52;;;1.27;;
72273;SDS011;60208;48.692;8.948;2022-08-11T16:09:02;1.20;;;1.10;;
72273;SDS011;60208;48.692;8.948;2022-08-11T16:11:30;2.33;;;1.20;;
72273;SDS011;60208;48.692;8.948;2022-08-11T16:13:58;1.20;;;1.10;;
72273;SDS011;60208;48.692;8.948;2022-08-11T16:16:46;4.00;;;1.02;;
72273;SDS011;60208;48.692;8.948;2022-08-11T16:19:12;1.75;;;1.20;;
72273;SDS011;60208;48.692;8.948;2022-08-11T16:21:38;2.55;;;1.08;;
72273;SDS011;60208;48.692;8.948;2022-08-11T16:24:08;3.63;;;1.25;;
72273;SDS011;60208;48.692;8.948;2022-08-11T16:26:35;1.77;;;1.05;;
72273;SDS011;60208;48.692;8.948;2022-08-11T16:29:05;5.28;;;1.10;;
72273;SDS011;60208;48.692;8.948;2022-08-11T16:31:32;1.73;;;1.10;;
72273;SDS011;60208;48.692;8.948;2022-08-11T16:33:59;2.10;;;1.50;;
72273;SDS011;60208;48.692;8.948;2022-08-11T16:36:26;2.40;;;1.65;;
72273;SDS011;60208;48.692;8.948;2022-08-11T16:39:11;2.20;;;1.05;;
72273;SDS011;60208;48.692;8.948;2022-08-11T16:41:42;5.18;;;3.25;;
72273;SDS011;60208;48.692;8.948;2022-08-11T16:44:27;3.10;;;1.13;;
72273;SDS011;60208;48.692;8.948;2022-08-11T16:47:16;5.10;;;1.40;;
72273;SDS011;60208;48.692;8.948;2022-08-11T16:49:43;2.53;;;1.15;;
72273;SDS011;60208;48.692;8.948;2022-08-11T16:52:11;1.48;;;1.20;;
72273;SDS011;60208;48.692;8.948;2022-08-11T16:54:37;2.85;;;1.30;;
72273;SDS011;60208;48.692;8.948;2022-08-11T16:57:25;3.25;;;1.23;;
72273;SDS011;60208;48.692;8.948;2022-08-11T17:00:08;3.22;;;1.30;;
72273;SDS011;60208;48.692;8.948;2022-08-11T17:02:48;2.58;;;1.30;;
72273;SDS011;60208;48.692;8.948;2022-08-11T17:05:34;5.07;;;1.52;;
72273;SDS011;60208;48.692;8.948;2022-08-11T17:08:24;3.35;;;1.60;;
72273;SDS011;60208;48.692;8.948;2022-08-11T17:11:11;5.45;;;1.50;;
72273;SDS011;60208;48.692;8.948;2022-08-11T17:14:09;2.70;;;1.23;;
72273;SDS011;60208;48.692;8.948;2022-08-11T17:16:38;1.50;;;1.40;;
72273;SDS011;60208;48.692;8.948;2022-08-11T17:21:46;2.33;;;1.42;;
72273;SDS011;60208;48.692;8.948;2022-08-11T17:24:36;1.83;;;1.65;;
72273;SDS011;60208;48.692;8.948;2022-08-11T17:27:09;3.97;;;1.75;;
72273;SDS011;60208;48.692;8.948;2022-08-11T17:29:48;2.65;;;1.60;;
72273;SDS011;60208;48.692;8.948;2022-08-11T17:32:16;2.22;;;1.40;;
72273;SDS011;60208;48.692;8.948;2022-08-11T17:35:03;1.55;;;1.15;;
72273;SDS011;60208;48.692;8.948;2022-08-11T17:37:50;2.17;;;1.30;;
72273;SDS011;60208;48.692;8.948;2022-08-11T17:40:17;2.78;;;1.77;;
72273;SDS011;60208;48.692;8.948;2022-08-11T17:42:48;1.65;;;1.50;;
72273;SDS011;60208;48.692;8.948;2022-08-11T17:45:33;3.20;;;1.50;;
72273;SDS011;60208;48.692;8.948;2022-08-11T17:48:17;1.52;;;1.40;;
72273;SDS011;60208;48.692;8.948;2022-08-11T17:50:59;2.88;;;1.42;;
72273;SDS011;60208;48.692;8.948;2022-08-11T17:53:28;1.52;;;1.30;;
72273;SDS011;60208;48.692;8.948;2022-08-11T17:56:13;3.15;;;1.45;;
72273;SDS011;60208;48.692;8.948;2022-08-11T17:58:59;2.53;;;1.60;;
72273;SDS011;60208;48.692;8.948;2022-08-11T18:01:45;3.67;;;1.65;;
72273;SDS011;60208;48.692;8.948;2022-08-11T18:04:12;4.47;;;1.50;;
72273;SDS011;60208;48.692;8.948;2022-08-11T18:06:38;1.67;;;1.40;;
72273;SDS011;60208;48.692;8.948;2022-08-11T18:09:12;2.45;;;1.60;;
72273;SDS011;60208;48.692;8.948;2022-08-11T18:11:58;5.10;;;1.50;;
72273;SDS011;60208;48.692;8.948;2022-08-11T18:14:44;3.47;;;1.88;;
72273;SDS011;60208;48.692;8.948;2022-08-11T18:17:30;3.33;;;1.67;;
72273;SDS011;60208;48.692;8.948;2022-08-11T18:20:15;3.53;;;1.80;;
72273;SDS011;60208;48.692;8.948;2022-08-11T18:23:00;3.85;;;1.35;;
72273;SDS011;60208;48.692;8.948;2022-08-11T18:25:46;4.97;;;1.40;;
72273;SDS011;60208;48.692;8.948;2022-08-11T18:29:04;4.68;;;1.70;;
72273;SDS011;60208;48.692;8.948;2022-08-11T18:31:43;2.88;;;1.48;;
72273;SDS011;60208;48.692;8.948;2022-08-11T18:34:35;3.33;;;1.90;;
72273;SDS011;60208;48.692;8.948;2022-08-11T18:37:28;3.13;;;1.90;;
72273;SDS011;60208;48.692;8.948;2022-08-11T18:40:18;7.85;;;2.00;;
72273;SDS011;60208;48.692;8.948;2022-08-11T18:43:06;4.60;;;2.05;;
72273;SDS011;60208;48.692;8.948;2022-08-11T18:45:55;5.90;;;1.80;;
72273;SDS011;60208;48.692;8.948;2022-08-11T18:48:44;3.38;;;1.95;;
72273;SDS011;60208;48.692;8.948;2022-08-11T18:51:31;4.53;;;2.53;;
72273;SDS011;60208;48.692;8.948;2022-08-11T18:54:16;5.78;;;2.10;;
72273;SDS011;60208;48.692;8.948;2022-08-11T18:57:01;5.78;;;1.88;;
72273;SDS011;60208;48.692;8.948;2022-08-11T18:59:47;3.83;;;1.67;;
72273;SDS011;60208;48.692;8.948;2022-08-11T19:02:34;4.65;;;1.95;;
72273;SDS011;60208;48.692;8.948;2022-08-11T19:05:19;9.57;;;1.95;;
72273;SDS011;60208;48.692;8.948;2022-08-11T19:08:04;3.95;;;1.85;;
72273;SDS011;60208;48.692;8.948;2022-08-11T19:10:49;4.03;;;1.80;;
72273;SDS011;60208;48.692;8.948;2022-08-11T19:13:33;4.50;;;2.17;;
72273;SDS011;60208;48.692;8.948;2022-08-11T19:16:19;4.10;;;2.00;;
72273;SDS011;60208;48.692;8.948;2022-08-11T19:19:05;3.55;;;2.00;;
72273;SDS011;60208;48.692;8.948;2022-08-11T19:21:50;2.60;;;1.90;;
72273;SDS011;60208;48.692;8.948;2022-08-11T19:24:34;7.93;;;3.38;;
72273;SDS011;60208;48.692;8.948;2022-08-11T19:27:20;4.68;;;2.20;;
72273;SDS011;60208;48.692;8.948;2022-08-11T19:30:06;7.60;;;3.60;;
72273;SDS011;60208;48.692;8.948;2022-08-11T19:32:50;4.97;;;2.35;;
72273;SDS011;60208;48.692;8.948;2022-08-11T19:35:34;2.05;;;1.83;;
72273;SDS011;60208;48.692;8.948;2022-08-11T19:38:18;4.32;;;2.00;;
72273;SDS011;60208;48.692;8.948;2022-08-11T19:41:03;4.20;;;2.10;;